New Orleans NAS, Louisiana
Current Conditions -  °F | °C
As of 6:08 PM on Sunday 23 Nov 2014 (Local Time) from KNBG Reporting Station
Broken Clouds Broken Clouds  
Wind Chill: 67°   Ceiling: 2800
Heat Index: 67°   Visibility: NA
Dew Point: 63°   Wind: 7mph
Humidity: 87%   Direction: 210°SSW
Pressure: 29.69"   Gusts: NA
Location:  29.83°N, 90.02°W
Report Text: KNBG 240008Z AUTO 21006KT SCT021 BKN028 BKN037 19/17 A2969 RMK AO2 T01940172 TSNO $
Loading
Personal Weather Stations






























Interactive Weather Map New forecast layout! Learn more

10-Day Weather Forecast

Advertisements
Track Severe Weather on mobile